sensor_id;sensor_type;location;lat;lon;timestamp;P1;durP1;ratioP1;P2;durP2;ratioP2
2772;SDS011;1394;47.044;15.744;2023-06-22T00:01:19;27.57;;;4.20;;
2772;SDS011;1394;47.044;15.744;2023-06-22T00:03:47;26.43;;;3.40;;
2772;SDS011;1394;47.044;15.744;2023-06-22T00:06:14;26.10;;;3.27;;
2772;SDS011;1394;47.044;15.744;2023-06-22T00:08:45;28.47;;;3.13;;
2772;SDS011;1394;47.044;15.744;2023-06-22T00:11:12;26.93;;;3.50;;
2772;SDS011;1394;47.044;15.744;2023-06-22T00:13:41;27.17;;;3.87;;
2772;SDS011;1394;47.044;15.744;2023-06-22T00:16:10;26.60;;;3.50;;
2772;SDS011;1394;47.044;15.744;2023-06-22T00:18:39;26.97;;;3.10;;
2772;SDS011;1394;47.044;15.744;2023-06-22T00:21:11;27.07;;;3.03;;
2772;SDS011;1394;47.044;15.744;2023-06-22T00:23:42;26.10;;;3.10;;
2772;SDS011;1394;47.044;15.744;2023-06-22T00:26:11;27.73;;;2.93;;
2772;SDS011;1394;47.044;15.744;2023-06-22T00:28:41;27.60;;;3.50;;
2772;SDS011;1394;47.044;15.744;2023-06-22T00:31:09;27.20;;;3.47;;
2772;SDS011;1394;47.044;15.744;2023-06-22T00:33:36;26.70;;;3.30;;
2772;SDS011;1394;47.044;15.744;2023-06-22T00:36:04;26.50;;;3.10;;
2772;SDS011;1394;47.044;15.744;2023-06-22T00:38:31;27.57;;;3.77;;
2772;SDS011;1394;47.044;15.744;2023-06-22T00:40:59;26.40;;;3.03;;
2772;SDS011;1394;47.044;15.744;2023-06-22T00:43:28;26.40;;;3.07;;
2772;SDS011;1394;47.044;15.744;2023-06-22T00:45:56;27.50;;;3.50;;
2772;SDS011;1394;47.044;15.744;2023-06-22T00:48:25;27.77;;;4.00;;
2772;SDS011;1394;47.044;15.744;2023-06-22T00:50:52;28.70;;;4.47;;
2772;SDS011;1394;47.044;15.744;2023-06-22T00:53:21;27.77;;;4.70;;
2772;SDS011;1394;47.044;15.744;2023-06-22T00:55:48;26.67;;;3.47;;
2772;SDS011;1394;47.044;15.744;2023-06-22T00:58:16;26.40;;;3.20;;
2772;SDS011;1394;47.044;15.744;2023-06-22T01:00:48;28.07;;;3.97;;
2772;SDS011;1394;47.044;15.744;2023-06-22T01:03:15;26.93;;;3.77;;
2772;SDS011;1394;47.044;15.744;2023-06-22T01:05:42;26.90;;;3.73;;
2772;SDS011;1394;47.044;15.744;2023-06-22T01:08:16;26.70;;;3.40;;
2772;SDS011;1394;47.044;15.744;2023-06-22T01:10:48;27.53;;;4.00;;
2772;SDS011;1394;47.044;15.744;2023-06-22T01:13:18;26.30;;;3.10;;
2772;SDS011;1394;47.044;15.744;2023-06-22T01:15:53;26.30;;;3.23;;
2772;SDS011;1394;47.044;15.744;2023-06-22T01:18:22;25.90;;;3.23;;
2772;SDS011;1394;47.044;15.744;2023-06-22T01:20:52;26.50;;;3.23;;
2772;SDS011;1394;47.044;15.744;2023-06-22T01:23:22;26.23;;;2.90;;
2772;SDS011;1394;47.044;15.744;2023-06-22T01:25:53;26.90;;;3.13;;
2772;SDS011;1394;47.044;15.744;2023-06-22T01:31:15;28.17;;;3.57;;
2772;SDS011;1394;47.044;15.744;2023-06-22T01:33:43;26.93;;;3.00;;
2772;SDS011;1394;47.044;15.744;2023-06-22T01:36:11;26.90;;;3.53;;
2772;SDS011;1394;47.044;15.744;2023-06-22T01:38:40;26.97;;;3.40;;
2772;SDS011;1394;47.044;15.744;2023-06-22T01:41:08;26.97;;;3.47;;
2772;SDS011;1394;47.044;15.744;2023-06-22T01:43:38;26.43;;;3.00;;
2772;SDS011;1394;47.044;15.744;2023-06-22T01:46:06;27.80;;;3.50;;
2772;SDS011;1394;47.044;15.744;2023-06-22T01:48:35;27.70;;;3.40;;
2772;SDS011;1394;47.044;15.744;2023-06-22T01:51:02;27.17;;;3.27;;
2772;SDS011;1394;47.044;15.744;2023-06-22T01:53:30;29.27;;;4.10;;
2772;SDS011;1394;47.044;15.744;2023-06-22T01:55:57;27.67;;;3.30;;
2772;SDS011;1394;47.044;15.744;2023-06-22T01:58:25;27.60;;;4.50;;
2772;SDS011;1394;47.044;15.744;2023-06-22T02:00:55;27.60;;;4.00;;
2772;SDS011;1394;47.044;15.744;2023-06-22T02:03:26;27.60;;;3.87;;
2772;SDS011;1394;47.044;15.744;2023-06-22T02:05:56;27.97;;;3.47;;
2772;SDS011;1394;47.044;15.744;2023-06-22T02:08:27;27.00;;;3.77;;
2772;SDS011;1394;47.044;15.744;2023-06-22T02:10:55;26.07;;;3.37;;
2772;SDS011;1394;47.044;15.744;2023-06-22T02:13:24;26.87;;;3.50;;
2772;SDS011;1394;47.044;15.744;2023-06-22T02:15:52;27.67;;;3.33;;
2772;SDS011;1394;47.044;15.744;2023-06-22T02:18:20;26.90;;;3.07;;
2772;SDS011;1394;47.044;15.744;2023-06-22T02:20:47;26.77;;;3.03;;
2772;SDS011;1394;47.044;15.744;2023-06-22T02:23:16;26.30;;;3.10;;
2772;SDS011;1394;47.044;15.744;2023-06-22T02:25:43;27.60;;;3.53;;
2772;SDS011;1394;47.044;15.744;2023-06-22T02:28:10;26.00;;;3.10;;
2772;SDS011;1394;47.044;15.744;2023-06-22T02:30:37;26.27;;;2.90;;
2772;SDS011;1394;47.044;15.744;2023-06-22T02:33:04;27.03;;;3.40;;
2772;SDS011;1394;47.044;15.744;2023-06-22T02:35:31;26.13;;;3.40;;
2772;SDS011;1394;47.044;15.744;2023-06-22T02:38:01;26.47;;;3.00;;
2772;SDS011;1394;47.044;15.744;2023-06-22T02:40:30;26.73;;;3.37;;
2772;SDS011;1394;47.044;15.744;2023-06-22T02:42:57;27.40;;;3.40;;
2772;SDS011;1394;47.044;15.744;2023-06-22T02:45:28;27.40;;;3.33;;
2772;SDS011;1394;47.044;15.744;2023-06-22T02:47:56;26.67;;;3.10;;
2772;SDS011;1394;47.044;15.744;2023-06-22T02:50:23;27.47;;;3.77;;
2772;SDS011;1394;47.044;15.744;2023-06-22T02:52:50;27.70;;;3.30;;
2772;SDS011;1394;47.044;15.744;2023-06-22T02:55:18;28.50;;;3.20;;
2772;SDS011;1394;47.044;15.744;2023-06-22T02:57:46;26.73;;;3.23;;
2772;SDS011;1394;47.044;15.744;2023-06-22T03:00:17;26.10;;;2.80;;
2772;SDS011;1394;47.044;15.744;2023-06-22T03:02:45;26.07;;;3.20;;
2772;SDS011;1394;47.044;15.744;2023-06-22T03:05:12;26.70;;;3.40;;
2772;SDS011;1394;47.044;15.744;2023-06-22T03:07:40;26.83;;;3.30;;
2772;SDS011;1394;47.044;15.744;2023-06-22T03:10:07;25.90;;;3.07;;
2772;SDS011;1394;47.044;15.744;2023-06-22T03:12:36;26.10;;;3.20;;
2772;SDS011;1394;47.044;15.744;2023-06-22T03:15:08;25.90;;;2.83;;
2772;SDS011;1394;47.044;15.744;2023-06-22T03:17:37;26.60;;;3.30;;
2772;SDS011;1394;47.044;15.744;2023-06-22T03:20:05;26.50;;;3.30;;
2772;SDS011;1394;47.044;15.744;2023-06-22T03:22:34;27.07;;;3.30;;
2772;SDS011;1394;47.044;15.744;2023-06-22T03:25:04;25.87;;;3.10;;
2772;SDS011;1394;47.044;15.744;2023-06-22T03:27:36;26.13;;;2.80;;
2772;SDS011;1394;47.044;15.744;2023-06-22T03:30:04;25.77;;;2.90;;
2772;SDS011;1394;47.044;15.744;2023-06-22T03:32:35;26.70;;;3.10;;
2772;SDS011;1394;47.044;15.744;2023-06-22T03:35:02;26.90;;;2.97;;
2772;SDS011;1394;47.044;15.744;2023-06-22T03:37:33;26.30;;;3.20;;
2772;SDS011;1394;47.044;15.744;2023-06-22T03:40:01;26.47;;;3.20;;
2772;SDS011;1394;47.044;15.744;2023-06-22T03:42:40;26.73;;;2.73;;
2772;SDS011;1394;47.044;15.744;2023-06-22T03:45:08;26.07;;;3.20;;
2772;SDS011;1394;47.044;15.744;2023-06-22T03:47:37;26.07;;;3.03;;
2772;SDS011;1394;47.044;15.744;2023-06-22T03:50:04;26.20;;;3.50;;
2772;SDS011;1394;47.044;15.744;2023-06-22T03:52:32;26.87;;;2.67;;
2772;SDS011;1394;47.044;15.744;2023-06-22T03:54:59;26.57;;;2.80;;
2772;SDS011;1394;47.044;15.744;2023-06-22T03:57:27;25.83;;;2.87;;
2772;SDS011;1394;47.044;15.744;2023-06-22T03:59:56;25.97;;;3.10;;
2772;SDS011;1394;47.044;15.744;2023-06-22T04:02:23;25.60;;;2.80;;
2772;SDS011;1394;47.044;15.744;2023-06-22T04:04:52;27.37;;;3.00;;
2772;SDS011;1394;47.044;15.744;2023-06-22T04:07:19;27.17;;;3.60;;
2772;SDS011;1394;47.044;15.744;2023-06-22T04:09:46;26.50;;;3.07;;
2772;SDS011;1394;47.044;15.744;2023-06-22T04:12:14;26.60;;;3.00;;
2772;SDS011;1394;47.044;15.744;2023-06-22T04:14:41;26.93;;;3.23;;
2772;SDS011;1394;47.044;15.744;2023-06-22T04:17:08;26.47;;;3.10;;
2772;SDS011;1394;47.044;15.744;2023-06-22T04:19:36;26.10;;;3.17;;
2772;SDS011;1394;47.044;15.744;2023-06-22T04:22:06;26.37;;;3.10;;
2772;SDS011;1394;47.044;15.744;2023-06-22T04:24:35;26.50;;;3.20;;
2772;SDS011;1394;47.044;15.744;2023-06-22T04:27:02;27.83;;;3.80;;
2772;SDS011;1394;47.044;15.744;2023-06-22T04:29:30;27.23;;;3.27;;
2772;SDS011;1394;47.044;15.744;2023-06-22T04:31:57;27.57;;;3.50;;
2772;SDS011;1394;47.044;15.744;2023-06-22T04:34:28;26.27;;;3.50;;
2772;SDS011;1394;47.044;15.744;2023-06-22T04:36:55;27.10;;;3.60;;
2772;SDS011;1394;47.044;15.744;2023-06-22T04:39:26;26.40;;;3.30;;
2772;SDS011;1394;47.044;15.744;2023-06-22T04:41:54;27.40;;;3.10;;
2772;SDS011;1394;47.044;15.744;2023-06-22T04:44:25;26.70;;;3.20;;
2772;SDS011;1394;47.044;15.744;2023-06-22T04:46:55;26.00;;;3.03;;
2772;SDS011;1394;47.044;15.744;2023-06-22T04:49:25;25.97;;;2.83;;
2772;SDS011;1394;47.044;15.744;2023-06-22T04:51:58;26.80;;;2.80;;
2772;SDS011;1394;47.044;15.744;2023-06-22T04:57:14;27.57;;;3.70;;
2772;SDS011;1394;47.044;15.744;2023-06-22T04:59:42;26.77;;;3.03;;
2772;SDS011;1394;47.044;15.744;2023-06-22T05:02:09;27.00;;;3.20;;
2772;SDS011;1394;47.044;15.744;2023-06-22T05:04:36;25.83;;;2.80;;
2772;SDS011;1394;47.044;15.744;2023-06-22T05:07:04;26.90;;;3.10;;
2772;SDS011;1394;47.044;15.744;2023-06-22T05:09:32;26.40;;;2.80;;
2772;SDS011;1394;47.044;15.744;2023-06-22T05:11:59;27.00;;;3.30;;
2772;SDS011;1394;47.044;15.744;2023-06-22T05:14:30;26.50;;;3.13;;
2772;SDS011;1394;47.044;15.744;2023-06-22T05:16:58;27.80;;;3.10;;
2772;SDS011;1394;47.044;15.744;2023-06-22T05:19:29;27.13;;;3.00;;
2772;SDS011;1394;47.044;15.744;2023-06-22T05:21:59;26.90;;;3.00;;
2772;SDS011;1394;47.044;15.744;2023-06-22T05:24:26;26.80;;;3.00;;
2772;SDS011;1394;47.044;15.744;2023-06-22T05:26:56;26.20;;;3.37;;
2772;SDS011;1394;47.044;15.744;2023-06-22T05:29:32;27.50;;;3.40;;
2772;SDS011;1394;47.044;15.744;2023-06-22T05:31:59;27.13;;;3.20;;
2772;SDS011;1394;47.044;15.744;2023-06-22T05:34:26;26.23;;;3.17;;
2772;SDS011;1394;47.044;15.744;2023-06-22T05:36:54;30.43;;;3.30;;
2772;SDS011;1394;47.044;15.744;2023-06-22T05:39:24;26.53;;;3.17;;
2772;SDS011;1394;47.044;15.744;2023-06-22T05:41:51;26.37;;;2.67;;
2772;SDS011;1394;47.044;15.744;2023-06-22T05:44:19;26.70;;;3.20;;
2772;SDS011;1394;47.044;15.744;2023-06-22T05:46:47;26.77;;;3.00;;
2772;SDS011;1394;47.044;15.744;2023-06-22T05:49:16;26.80;;;2.90;;
2772;SDS011;1394;47.044;15.744;2023-06-22T05:51:44;26.27;;;2.70;;
2772;SDS011;1394;47.044;15.744;2023-06-22T05:54:11;25.83;;;2.57;;
2772;SDS011;1394;47.044;15.744;2023-06-22T05:56:40;27.50;;;3.10;;
2772;SDS011;1394;47.044;15.744;2023-06-22T05:59:08;26.50;;;2.90;;
2772;SDS011;1394;47.044;15.744;2023-06-22T06:01:37;27.93;;;3.03;;
2772;SDS011;1394;47.044;15.744;2023-06-22T06:04:11;27.17;;;3.20;;
2772;SDS011;1394;47.044;15.744;2023-06-22T06:06:38;27.10;;;3.23;;
2772;SDS011;1394;47.044;15.744;2023-06-22T06:09:05;27.50;;;3.17;;
2772;SDS011;1394;47.044;15.744;2023-06-22T06:11:32;27.27;;;3.40;;
2772;SDS011;1394;47.044;15.744;2023-06-22T06:14:00;26.33;;;3.20;;
2772;SDS011;1394;47.044;15.744;2023-06-22T06:16:27;26.73;;;2.80;;
2772;SDS011;1394;47.044;15.744;2023-06-22T06:18:55;26.60;;;2.80;;
2772;SDS011;1394;47.044;15.744;2023-06-22T06:21:25;26.07;;;2.67;;
2772;SDS011;1394;47.044;15.744;2023-06-22T06:23:52;27.27;;;2.93;;
2772;SDS011;1394;47.044;15.744;2023-06-22T06:26:19;29.07;;;3.23;;
2772;SDS011;1394;47.044;15.744;2023-06-22T06:28:55;28.03;;;3.30;;
2772;SDS011;1394;47.044;15.744;2023-06-22T06:31:23;26.07;;;2.70;;
2772;SDS011;1394;47.044;15.744;2023-06-22T06:33:52;28.73;;;3.23;;
2772;SDS011;1394;47.044;15.744;2023-06-22T06:36:20;27.30;;;3.17;;
2772;SDS011;1394;47.044;15.744;2023-06-22T06:38:51;29.13;;;3.47;;
2772;SDS011;1394;47.044;15.744;2023-06-22T06:41:19;28.10;;;3.03;;
2772;SDS011;1394;47.044;15.744;2023-06-22T06:43:47;26.40;;;3.00;;
2772;SDS011;1394;47.044;15.744;2023-06-22T06:46:14;26.70;;;3.00;;
2772;SDS011;1394;47.044;15.744;2023-06-22T06:48:43;26.93;;;2.97;;
2772;SDS011;1394;47.044;15.744;2023-06-22T06:51:10;27.30;;;2.73;;
2772;SDS011;1394;47.044;15.744;2023-06-22T06:53:37;27.10;;;2.93;;
2772;SDS011;1394;47.044;15.744;2023-06-22T06:56:07;26.70;;;3.20;;
2772;SDS011;1394;47.044;15.744;2023-06-22T06:58:35;28.00;;;2.90;;
2772;SDS011;1394;47.044;15.744;2023-06-22T07:01:04;26.77;;;3.00;;
2772;SDS011;1394;47.044;15.744;2023-06-22T07:03:32;28.57;;;3.03;;
2772;SDS011;1394;47.044;15.744;2023-06-22T07:05:59;26.77;;;2.93;;
2772;SDS011;1394;47.044;15.744;2023-06-22T07:08:26;27.70;;;2.90;;
2772;SDS011;1394;47.044;15.744;2023-06-22T07:10:54;26.97;;;3.00;;
2772;SDS011;1394;47.044;15.744;2023-06-22T07:13:22;26.10;;;2.60;;
2772;SDS011;1394;47.044;15.744;2023-06-22T07:15:50;27.30;;;3.30;;
2772;SDS011;1394;47.044;15.744;2023-06-22T07:18:17;26.80;;;3.33;;
2772;SDS011;1394;47.044;15.744;2023-06-22T07:20:44;27.03;;;2.87;;
2772;SDS011;1394;47.044;15.744;2023-06-22T07:23:12;27.07;;;3.10;;
2772;SDS011;1394;47.044;15.744;2023-06-22T07:25:39;26.97;;;2.90;;
2772;SDS011;1394;47.044;15.744;2023-06-22T07:28:07;26.90;;;2.60;;
2772;SDS011;1394;47.044;15.744;2023-06-22T07:30:38;26.97;;;2.80;;
2772;SDS011;1394;47.044;15.744;2023-06-22T07:33:05;27.60;;;2.77;;
2772;SDS011;1394;47.044;15.744;2023-06-22T07:35:33;25.90;;;2.30;;
2772;SDS011;1394;47.044;15.744;2023-06-22T07:38:00;28.67;;;3.10;;
2772;SDS011;1394;47.044;15.744;2023-06-22T07:40:28;26.23;;;2.60;;
2772;SDS011;1394;47.044;15.744;2023-06-22T07:42:56;27.23;;;2.50;;
2772;SDS011;1394;47.044;15.744;2023-06-22T07:45:23;25.90;;;2.40;;
2772;SDS011;1394;47.044;15.744;2023-06-22T07:47:52;27.30;;;2.70;;
2772;SDS011;1394;47.044;15.744;2023-06-22T07:50:19;26.60;;;2.77;;
2772;SDS011;1394;47.044;15.744;2023-06-22T07:52:50;25.90;;;2.20;;
2772;SDS011;1394;47.044;15.744;2023-06-22T07:55:21;26.17;;;2.37;;
2772;SDS011;1394;47.044;15.744;2023-06-22T07:57:49;25.67;;;2.00;;
2772;SDS011;1394;47.044;15.744;2023-06-22T08:00:17;26.93;;;2.57;;
2772;SDS011;1394;47.044;15.744;2023-06-22T08:02:47;26.13;;;2.63;;
2772;SDS011;1394;47.044;15.744;2023-06-22T08:05:15;27.23;;;2.30;;
2772;SDS011;1394;47.044;15.744;2023-06-22T08:07:42;26.27;;;2.60;;
2772;SDS011;1394;47.044;15.744;2023-06-22T08:10:10;26.37;;;2.67;;
2772;SDS011;1394;47.044;15.744;2023-06-22T08:12:37;27.23;;;2.73;;
2772;SDS011;1394;47.044;15.744;2023-06-22T08:15:07;26.53;;;2.70;;
2772;SDS011;1394;47.044;15.744;2023-06-22T08:17:37;26.27;;;2.50;;
2772;SDS011;1394;47.044;15.744;2023-06-22T08:20:04;26.40;;;2.50;;
2772;SDS011;1394;47.044;15.744;2023-06-22T08:22:36;25.97;;;2.43;;
2772;SDS011;1394;47.044;15.744;2023-06-22T08:25:04;26.00;;;2.57;;
2772;SDS011;1394;47.044;15.744;2023-06-22T08:27:31;25.40;;;2.47;;
2772;SDS011;1394;47.044;15.744;2023-06-22T08:29:58;26.10;;;2.43;;
2772;SDS011;1394;47.044;15.744;2023-06-22T08:32:26;25.93;;;2.43;;
2772;SDS011;1394;47.044;15.744;2023-06-22T08:34:53;25.97;;;2.73;;
2772;SDS011;1394;47.044;15.744;2023-06-22T08:37:21;26.67;;;2.80;;
2772;SDS011;1394;47.044;15.744;2023-06-22T08:39:53;25.67;;;2.40;;
2772;SDS011;1394;47.044;15.744;2023-06-22T08:42:20;27.10;;;2.60;;
2772;SDS011;1394;47.044;15.744;2023-06-22T08:44:49;27.13;;;2.83;;
2772;SDS011;1394;47.044;15.744;2023-06-22T08:47:18;26.13;;;2.37;;
2772;SDS011;1394;47.044;15.744;2023-06-22T08:49:46;26.70;;;2.80;;
2772;SDS011;1394;47.044;15.744;2023-06-22T08:52:13;25.37;;;2.30;;
2772;SDS011;1394;47.044;15.744;2023-06-22T08:54:40;25.47;;;2.33;;
2772;SDS011;1394;47.044;15.744;2023-06-22T08:57:09;30.00;;;2.63;;
2772;SDS011;1394;47.044;15.744;2023-06-22T08:59:36;27.83;;;2.93;;
2772;SDS011;1394;47.044;15.744;2023-06-22T09:02:04;26.40;;;2.80;;
2772;SDS011;1394;47.044;15.744;2023-06-22T09:04:32;28.47;;;2.73;;
2772;SDS011;1394;47.044;15.744;2023-06-22T09:07:01;26.87;;;2.87;;
2772;SDS011;1394;47.044;15.744;2023-06-22T09:09:28;26.20;;;2.70;;
2772;SDS011;1394;47.044;15.744;2023-06-22T09:11:58;26.97;;;2.67;;
2772;SDS011;1394;47.044;15.744;2023-06-22T09:14:29;25.33;;;2.43;;
2772;SDS011;1394;47.044;15.744;2023-06-22T09:16:57;25.10;;;2.30;;
2772;SDS011;1394;47.044;15.744;2023-06-22T09:19:24;26.37;;;2.57;;
2772;SDS011;1394;47.044;15.744;2023-06-22T09:21:51;25.10;;;2.43;;
2772;SDS011;1394;47.044;15.744;2023-06-22T09:24:19;25.80;;;2.50;;
2772;SDS011;1394;47.044;15.744;2023-06-22T09:26:46;26.20;;;2.37;;
2772;SDS011;1394;47.044;15.744;2023-06-22T09:29:14;25.80;;;2.60;;
2772;SDS011;1394;47.044;15.744;2023-06-22T09:31:42;25.77;;;2.40;;
2772;SDS011;1394;47.044;15.744;2023-06-22T09:34:10;25.47;;;2.50;;
2772;SDS011;1394;47.044;15.744;2023-06-22T09:36:37;25.63;;;2.50;;
2772;SDS011;1394;47.044;15.744;2023-06-22T09:39:08;25.57;;;2.60;;
2772;SDS011;1394;47.044;15.744;2023-06-22T09:41:35;25.83;;;2.50;;
2772;SDS011;1394;47.044;15.744;2023-06-22T09:44:02;26.10;;;2.47;;
2772;SDS011;1394;47.044;15.744;2023-06-22T09:46:32;25.60;;;2.43;;
2772;SDS011;1394;47.044;15.744;2023-06-22T09:49:03;25.97;;;2.53;;
2772;SDS011;1394;47.044;15.744;2023-06-22T09:51:31;25.83;;;3.10;;
2772;SDS011;1394;47.044;15.744;2023-06-22T09:53:58;27.73;;;2.90;;
2772;SDS011;1394;47.044;15.744;2023-06-22T09:56:26;25.87;;;2.80;;
2772;SDS011;1394;47.044;15.744;2023-06-22T09:58:54;26.40;;;3.03;;
2772;SDS011;1394;47.044;15.744;2023-06-22T10:01:21;26.50;;;2.83;;
2772;SDS011;1394;47.044;15.744;2023-06-22T10:03:49;25.50;;;2.53;;
2772;SDS011;1394;47.044;15.744;2023-06-22T10:06:23;26.53;;;2.93;;
2772;SDS011;1394;47.044;15.744;2023-06-22T10:08:52;25.73;;;2.50;;
2772;SDS011;1394;47.044;15.744;2023-06-22T10:11:36;25.27;;;2.70;;
2772;SDS011;1394;47.044;15.744;2023-06-22T10:14:03;26.30;;;2.50;;
2772;SDS011;1394;47.044;15.744;2023-06-22T10:16:31;26.27;;;2.97;;
2772;SDS011;1394;47.044;15.744;2023-06-22T10:19:01;25.20;;;2.70;;
2772;SDS011;1394;47.044;15.744;2023-06-22T10:21:30;25.30;;;2.70;;
2772;SDS011;1394;47.044;15.744;2023-06-22T10:23:59;25.27;;;2.50;;
2772;SDS011;1394;47.044;15.744;2023-06-22T10:26:31;26.43;;;2.67;;
2772;SDS011;1394;47.044;15.744;2023-06-22T10:28:59;25.53;;;2.40;;
2772;SDS011;1394;47.044;15.744;2023-06-22T10:31:29;25.60;;;2.67;;
2772;SDS011;1394;47.044;15.744;2023-06-22T10:33:57;26.07;;;2.70;;
2772;SDS011;1394;47.044;15.744;2023-06-22T10:36:24;25.50;;;2.50;;
2772;SDS011;1394;47.044;15.744;2023-06-22T10:38:52;26.20;;;2.80;;
2772;SDS011;1394;47.044;15.744;2023-06-22T10:41:20;25.47;;;2.67;;
2772;SDS011;1394;47.044;15.744;2023-06-22T10:43:48;26.90;;;3.10;;
2772;SDS011;1394;47.044;15.744;2023-06-22T10:46:15;26.10;;;2.83;;
2772;SDS011;1394;47.044;15.744;2023-06-22T10:48:42;26.30;;;3.17;;
2772;SDS011;1394;47.044;15.744;2023-06-22T10:51:09;26.00;;;2.40;;
2772;SDS011;1394;47.044;15.744;2023-06-22T10:53:38;26.57;;;3.30;;
2772;SDS011;1394;47.044;15.744;2023-06-22T10:56:07;25.83;;;2.73;;
2772;SDS011;1394;47.044;15.744;2023-06-22T10:58:34;25.47;;;2.60;;
2772;SDS011;1394;47.044;15.744;2023-06-22T11:01:02;27.57;;;2.80;;
2772;SDS011;1394;47.044;15.744;2023-06-22T11:03:30;26.07;;;2.87;;
2772;SDS011;1394;47.044;15.744;2023-06-22T11:05:57;25.57;;;2.53;;
2772;SDS011;1394;47.044;15.744;2023-06-22T11:08:24;24.77;;;2.50;;
2772;SDS011;1394;47.044;15.744;2023-06-22T11:10:53;25.87;;;2.60;;
2772;SDS011;1394;47.044;15.744;2023-06-22T11:13:23;26.70;;;2.77;;
2772;SDS011;1394;47.044;15.744;2023-06-22T11:15:51;25.73;;;3.10;;
2772;SDS011;1394;47.044;15.744;2023-06-22T11:18:18;26.70;;;2.77;;
2772;SDS011;1394;47.044;15.744;2023-06-22T11:20:45;26.07;;;2.87;;
2772;SDS011;1394;47.044;15.744;2023-06-22T11:23:14;25.40;;;2.77;;
2772;SDS011;1394;47.044;15.744;2023-06-22T11:25:41;25.63;;;2.50;;
2772;SDS011;1394;47.044;15.744;2023-06-22T11:28:08;25.93;;;2.80;;
2772;SDS011;1394;47.044;15.744;2023-06-22T11:30:37;26.73;;;2.80;;
2772;SDS011;1394;47.044;15.744;2023-06-22T11:33:04;26.40;;;2.73;;
2772;SDS011;1394;47.044;15.744;2023-06-22T11:35:31;25.90;;;2.90;;
2772;SDS011;1394;47.044;15.744;2023-06-22T11:38:00;26.50;;;2.70;;
2772;SDS011;1394;47.044;15.744;2023-06-22T11:40:29;25.37;;;2.53;;
2772;SDS011;1394;47.044;15.744;2023-06-22T11:42:56;26.60;;;2.80;;
2772;SDS011;1394;47.044;15.744;2023-06-22T11:45:23;27.27;;;2.60;;
2772;SDS011;1394;47.044;15.744;2023-06-22T11:47:53;28.57;;;2.50;;
2772;SDS011;1394;47.044;15.744;2023-06-22T11:50:20;33.43;;;4.40;;
2772;SDS011;1394;47.044;15.744;2023-06-22T11:52:50;25.90;;;2.60;;
2772;SDS011;1394;47.044;15.744;2023-06-22T11:55:19;25.70;;;2.60;;
2772;SDS011;1394;47.044;15.744;2023-06-22T11:57:53;27.00;;;2.70;;
2772;SDS011;1394;47.044;15.744;2023-06-22T12:00:21;25.70;;;2.70;;
2772;SDS011;1394;47.044;15.744;2023-06-22T12:02:50;26.27;;;2.53;;
2772;SDS011;1394;47.044;15.744;2023-06-22T12:05:26;25.60;;;2.60;;
2772;SDS011;1394;47.044;15.744;2023-06-22T12:07:53;25.53;;;2.47;;
2772;SDS011;1394;47.044;15.744;2023-06-22T12:10:20;27.60;;;2.90;;
2772;SDS011;1394;47.044;15.744;2023-06-22T12:12:49;26.40;;;2.67;;
2772;SDS011;1394;47.044;15.744;2023-06-22T12:15:17;25.20;;;2.40;;
2772;SDS011;1394;47.044;15.744;2023-06-22T12:17:44;25.60;;;2.43;;
2772;SDS011;1394;47.044;15.744;2023-06-22T12:20:14;25.60;;;2.57;;
2772;SDS011;1394;47.044;15.744;2023-06-22T12:22:45;26.33;;;2.63;;
2772;SDS011;1394;47.044;15.744;2023-06-22T12:25:14;25.40;;;2.47;;
2772;SDS011;1394;47.044;15.744;2023-06-22T12:27:42;26.20;;;2.90;;
2772;SDS011;1394;47.044;15.744;2023-06-22T12:30:11;26.67;;;2.83;;
2772;SDS011;1394;47.044;15.744;2023-06-22T12:32:39;25.00;;;2.23;;
2772;SDS011;1394;47.044;15.744;2023-06-22T12:35:06;25.97;;;2.97;;
2772;SDS011;1394;47.044;15.744;2023-06-22T12:37:39;25.42;;;2.75;;
2772;SDS011;1394;47.044;15.744;2023-06-22T12:40:09;25.65;;;2.70;;
2772;SDS011;1394;47.044;15.744;2023-06-22T12:42:36;25.15;;;2.72;;
2772;SDS011;1394;47.044;15.744;2023-06-22T12:45:04;26.00;;;2.70;;
2772;SDS011;1394;47.044;15.744;2023-06-22T12:47:31;29.05;;;2.83;;
2772;SDS011;1394;47.044;15.744;2023-06-22T12:50:00;25.92;;;2.53;;
2772;SDS011;1394;47.044;15.744;2023-06-22T12:52:29;25.52;;;2.50;;
2772;SDS011;1394;47.044;15.744;2023-06-22T12:54:57;25.15;;;2.55;;
2772;SDS011;1394;47.044;15.744;2023-06-22T12:57:28;25.55;;;2.50;;
2772;SDS011;1394;47.044;15.744;2023-06-22T12:59:55;25.35;;;2.30;;
2772;SDS011;1394;47.044;15.744;2023-06-22T13:02:25;25.38;;;2.67;;
2772;SDS011;1394;47.044;15.744;2023-06-22T13:04:53;26.17;;;2.75;;
2772;SDS011;1394;47.044;15.744;2023-06-22T13:07:20;25.30;;;2.85;;
2772;SDS011;1394;47.044;15.744;2023-06-22T13:09:47;26.88;;;2.72;;
2772;SDS011;1394;47.044;15.744;2023-06-22T13:12:16;26.35;;;2.60;;
2772;SDS011;1394;47.044;15.744;2023-06-22T13:14:46;25.75;;;2.50;;
2772;SDS011;1394;47.044;15.744;2023-06-22T13:17:14;25.10;;;2.30;;
2772;SDS011;1394;47.044;15.744;2023-06-22T13:19:42;26.25;;;2.60;;
2772;SDS011;1394;47.044;15.744;2023-06-22T13:22:25;25.02;;;2.53;;
2772;SDS011;1394;47.044;15.744;2023-06-22T13:24:54;25.25;;;2.75;;
2772;SDS011;1394;47.044;15.744;2023-06-22T13:27:21;25.75;;;2.40;;
2772;SDS011;1394;47.044;15.744;2023-06-22T13:29:52;25.42;;;2.47;;
2772;SDS011;1394;47.044;15.744;2023-06-22T13:32:21;25.50;;;2.60;;
2772;SDS011;1394;47.044;15.744;2023-06-22T13:34:51;24.92;;;2.38;;
2772;SDS011;1394;47.044;15.744;2023-06-22T13:37:20;24.85;;;2.42;;
2772;SDS011;1394;47.044;15.744;2023-06-22T13:39:47;25.60;;;2.78;;
2772;SDS011;1394;47.044;15.744;2023-06-22T13:42:15;25.30;;;2.55;;
2772;SDS011;1394;47.044;15.744;2023-06-22T13:44:42;25.92;;;2.70;;
2772;SDS011;1394;47.044;15.744;2023-06-22T13:47:11;26.70;;;2.55;;
2772;SDS011;1394;47.044;15.744;2023-06-22T13:49:41;25.95;;;2.20;;
2772;SDS011;1394;47.044;15.744;2023-06-22T13:52:10;25.75;;;2.90;;
2772;SDS011;1394;47.044;15.744;2023-06-22T13:54:38;26.25;;;2.90;;
2772;SDS011;1394;47.044;15.744;2023-06-22T13:57:05;26.00;;;2.50;;
2772;SDS011;1394;47.044;15.744;2023-06-22T13:59:35;25.50;;;2.75;;
2772;SDS011;1394;47.044;15.744;2023-06-22T14:02:03;26.63;;;2.75;;
2772;SDS011;1394;47.044;15.744;2023-06-22T14:04:32;24.83;;;2.45;;
2772;SDS011;1394;47.044;15.744;2023-06-22T14:07:01;25.40;;;2.35;;
2772;SDS011;1394;47.044;15.744;2023-06-22T14:09:29;25.02;;;2.75;;
2772;SDS011;1394;47.044;15.744;2023-06-22T14:12:07;25.88;;;2.50;;
2772;SDS011;1394;47.044;15.744;2023-06-22T14:14:34;25.33;;;2.50;;
2772;SDS011;1394;47.044;15.744;2023-06-22T14:17:03;25.42;;;2.60;;
2772;SDS011;1394;47.044;15.744;2023-06-22T14:19:36;27.10;;;2.97;;
2772;SDS011;1394;47.044;15.744;2023-06-22T14:22:04;26.58;;;2.50;;
2772;SDS011;1394;47.044;15.744;2023-06-22T14:24:32;25.55;;;2.10;;
2772;SDS011;1394;47.044;15.744;2023-06-22T14:27:00;25.13;;;2.60;;
2772;SDS011;1394;47.044;15.744;2023-06-22T14:29:28;25.30;;;2.33;;
2772;SDS011;1394;47.044;15.744;2023-06-22T14:31:55;24.95;;;2.40;;
2772;SDS011;1394;47.044;15.744;2023-06-22T14:34:22;24.88;;;2.53;;
2772;SDS011;1394;47.044;15.744;2023-06-22T14:36:51;25.98;;;2.45;;
2772;SDS011;1394;47.044;15.744;2023-06-22T14:39:18;25.75;;;2.50;;
2772;SDS011;1394;47.044;15.744;2023-06-22T14:41:46;25.65;;;2.40;;
2772;SDS011;1394;47.044;15.744;2023-06-22T14:44:13;25.67;;;2.75;;
2772;SDS011;1394;47.044;15.744;2023-06-22T14:46:41;26.08;;;2.42;;
2772;SDS011;1394;47.044;15.744;2023-06-22T14:49:08;25.10;;;2.47;;
2772;SDS011;1394;47.044;15.744;2023-06-22T14:51:36;26.27;;;2.38;;
2772;SDS011;1394;47.044;15.744;2023-06-22T14:54:05;27.65;;;2.45;;
2772;SDS011;1394;47.044;15.744;2023-06-22T14:56:32;25.77;;;2.78;;
2772;SDS011;1394;47.044;15.744;2023-06-22T14:59:00;25.55;;;2.70;;
2772;SDS011;1394;47.044;15.744;2023-06-22T15:01:27;25.88;;;2.50;;